sensor_id;sensor_type;location;lat;lon;timestamp;pressure;altitude;pressure_sealevel;temperature;humidity
57779;BME280;43608;49.486;9.640;2022-09-21T00:00:04;99538.75;;;6.25;87.62
57779;BME280;43608;49.486;9.640;2022-09-21T00:00:37;99537.81;;;6.23;87.56
57779;BME280;43608;49.486;9.640;2022-09-21T00:01:25;99543.03;;;6.21;87.51
57779;BME280;43608;49.486;9.640;2022-09-21T00:01:56;99549.13;;;6.20;87.52
57779;BME280;43608;49.486;9.640;2022-09-21T00:02:27;99527.00;;;6.12;87.36
57779;BME280;43608;49.486;9.640;2022-09-21T00:02:57;99535.00;;;6.15;87.24
57779;BME280;43608;49.486;9.640;2022-09-21T00:03:28;99488.56;;;5.87;87.65
57779;BME280;43608;49.486;9.640;2022-09-21T00:04:00;99533.25;;;6.16;87.39
57779;BME280;43608;49.486;9.640;2022-09-21T00:04:31;99541.13;;;6.16;87.52
57779;BME280;43608;49.486;9.640;2022-09-21T00:05:02;99530.41;;;6.08;87.41
57779;BME280;43608;49.486;9.640;2022-09-21T00:05:33;99538.47;;;6.14;87.42
57779;BME280;43608;49.486;9.640;2022-09-21T00:06:21;99539.31;;;6.13;87.66
57779;BME280;43608;49.486;9.640;2022-09-21T00:17:50;99541.31;;;5.91;87.55
57779;BME280;43608;49.486;9.640;2022-09-21T00:18:25;99545.66;;;5.89;87.70
57779;BME280;43608;49.486;9.640;2022-09-21T00:18:56;99540.31;;;5.88;87.44
57779;BME280;43608;49.486;9.640;2022-09-21T00:19:26;99548.28;;;5.89;87.63
57779;BME280;43608;49.486;9.640;2022-09-21T00:19:56;99542.06;;;5.87;87.81
57779;BME280;43608;49.486;9.640;2022-09-21T00:20:27;99502.88;;;5.65;87.65
57779;BME280;43608;49.486;9.640;2022-09-21T00:20:58;99543.81;;;5.87;87.48
57779;BME280;43608;49.486;9.640;2022-09-21T00:21:28;99516.13;;;5.69;87.61
57779;BME280;43608;49.486;9.640;2022-09-21T00:21:59;99546.34;;;5.84;87.69
57779;BME280;43608;49.486;9.640;2022-09-21T00:22:31;99542.84;;;5.83;87.58
57779;BME280;43608;49.486;9.640;2022-09-21T00:23:01;99540.19;;;5.83;87.68
57779;BME280;43608;49.486;9.640;2022-09-21T00:23:33;99537.53;;;5.82;87.83
57779;BME280;43608;49.486;9.640;2022-09-21T00:24:05;99543.69;;;5.82;87.82
57779;BME280;43608;49.486;9.640;2022-09-21T00:24:36;99546.25;;;5.81;87.72
57779;BME280;43608;49.486;9.640;2022-09-21T00:25:07;99547.09;;;5.79;87.69
57779;BME280;43608;49.486;9.640;2022-09-21T00:25:38;99548.03;;;5.80;87.59
57779;BME280;43608;49.486;9.640;2022-09-21T00:26:41;99537.38;;;5.77;87.49
57779;BME280;43608;49.486;9.640;2022-09-21T00:27:11;99538.22;;;5.76;87.74
57779;BME280;43608;49.486;9.640;2022-09-21T00:27:42;99533.84;;;5.75;87.72
57779;BME280;43608;49.486;9.640;2022-09-21T00:28:12;99534.53;;;5.69;87.58
57779;BME280;43608;49.486;9.640;2022-09-21T00:28:44;99543.38;;;5.71;87.85
57779;BME280;43608;49.486;9.640;2022-09-21T00:29:14;99540.72;;;5.70;87.69
57779;BME280;43608;49.486;9.640;2022-09-21T00:29:45;99545.91;;;5.68;87.79
57779;BME280;43608;49.486;9.640;2022-09-21T00:30:16;99542.34;;;5.66;87.98
57779;BME280;43608;49.486;9.640;2022-09-21T00:30:46;99505.81;;;5.45;87.92
57779;BME280;43608;49.486;9.640;2022-09-21T00:31:21;99534.31;;;5.61;87.93
57779;BME280;43608;49.486;9.640;2022-09-21T00:31:52;99539.63;;;5.63;88.17
57779;BME280;43608;49.486;9.640;2022-09-21T00:32:23;99439.75;;;5.04;88.29
57779;BME280;43608;49.486;9.640;2022-09-21T00:32:56;99543.03;;;5.60;88.24
57779;BME280;43608;49.486;9.640;2022-09-21T00:33:26;99539.53;;;5.60;88.33
57779;BME280;43608;49.486;9.640;2022-09-21T00:33:57;99542.13;;;5.58;88.19
57779;BME280;43608;49.486;9.640;2022-09-21T00:34:29;99540.34;;;5.57;88.12
57779;BME280;43608;49.486;9.640;2022-09-21T00:35:00;99495.75;;;5.32;88.12
57779;BME280;43608;49.486;9.640;2022-09-21T00:35:32;99532.25;;;5.51;88.38
57779;BME280;43608;49.486;9.640;2022-09-21T00:36:08;99541.94;;;5.52;88.36
57779;BME280;43608;49.486;9.640;2022-09-21T00:36:39;99534.97;;;5.53;88.36
57779;BME280;43608;49.486;9.640;2022-09-21T00:37:09;99505.34;;;5.29;88.08
57779;BME280;43608;49.486;9.640;2022-09-21T00:37:40;99508.94;;;5.33;88.10
57779;BME280;43608;49.486;9.640;2022-09-21T00:38:11;99541.00;;;5.50;88.30
57779;BME280;43608;49.486;9.640;2022-09-21T00:38:42;99546.28;;;5.50;88.44
57779;BME280;43608;49.486;9.640;2022-09-21T00:39:12;99529.41;;;5.43;88.56
57779;BME280;43608;49.486;9.640;2022-09-21T00:39:43;99523.19;;;5.40;88.48
57779;BME280;43608;49.486;9.640;2022-09-21T00:40:13;99538.28;;;5.47;88.66
57779;BME280;43608;49.486;9.640;2022-09-21T00:40:44;99528.38;;;5.38;88.54
57779;BME280;43608;49.486;9.640;2022-09-21T00:41:14;99543.50;;;5.45;88.42
57779;BME280;43608;49.486;9.640;2022-09-21T00:41:44;99540.81;;;5.44;88.64
57779;BME280;43608;49.486;9.640;2022-09-21T00:42:30;99533.75;;;5.41;88.55
57779;BME280;43608;49.486;9.640;2022-09-21T00:43:18;99537.16;;;5.39;88.75
57779;BME280;43608;49.486;9.640;2022-09-21T00:44:47;99537.97;;;5.36;88.83
57779;BME280;43608;49.486;9.640;2022-09-21T00:45:18;99495.84;;;5.06;88.59
57779;BME280;43608;49.486;9.640;2022-09-21T00:45:59;99539.69;;;5.36;88.89
57779;BME280;43608;49.486;9.640;2022-09-21T00:46:31;99542.22;;;5.33;88.69
57779;BME280;43608;49.486;9.640;2022-09-21T00:47:06;99546.66;;;5.34;89.08
57779;BME280;43608;49.486;9.640;2022-09-21T00:47:41;99543.91;;;5.30;88.71
57779;BME280;43608;49.486;9.640;2022-09-21T00:48:12;99510.88;;;5.10;88.59
57779;BME280;43608;49.486;9.640;2022-09-21T00:48:44;99541.19;;;5.27;88.79
57779;BME280;43608;49.486;9.640;2022-09-21T00:49:16;99544.72;;;5.28;88.79
57779;BME280;43608;49.486;9.640;2022-09-21T00:49:50;99541.19;;;5.27;89.00
57779;BME280;43608;49.486;9.640;2022-09-21T00:50:23;99540.31;;;5.27;89.06
57779;BME280;43608;49.486;9.640;2022-09-21T00:50:58;99542.03;;;5.26;89.12
57779;BME280;43608;49.486;9.640;2022-09-21T00:51:32;99542.91;;;5.25;89.22
57779;BME280;43608;49.486;9.640;2022-09-21T00:52:04;99540.28;;;5.25;89.10
57779;BME280;43608;49.486;9.640;2022-09-21T00:52:41;99544.56;;;5.23;89.24
57779;BME280;43608;49.486;9.640;2022-09-21T00:53:13;99508.94;;;5.04;89.12
57779;BME280;43608;49.486;9.640;2022-09-21T00:53:45;99548.03;;;5.22;89.20
57779;BME280;43608;49.486;9.640;2022-09-21T00:54:27;99546.31;;;5.23;89.29
57779;BME280;43608;49.486;9.640;2022-09-21T00:55:07;99541.78;;;5.19;89.34
57779;BME280;43608;49.486;9.640;2022-09-21T00:55:42;99539.97;;;5.16;89.15
57779;BME280;43608;49.486;9.640;2022-09-21T00:56:15;99549.63;;;5.17;89.41
57779;BME280;43608;49.486;9.640;2022-09-21T00:56:46;99545.28;;;5.18;89.12
57779;BME280;43608;49.486;9.640;2022-09-21T00:57:18;99546.13;;;5.17;89.51
57779;BME280;43608;49.486;9.640;2022-09-21T00:57:55;99552.22;;;5.16;89.17
57779;BME280;43608;49.486;9.640;2022-09-21T00:58:31;99552.19;;;5.14;89.43
57779;BME280;43608;49.486;9.640;2022-09-21T00:59:04;99546.00;;;5.13;89.31
57779;BME280;43608;49.486;9.640;2022-09-21T00:59:36;99543.34;;;5.12;89.44
57779;BME280;43608;49.486;9.640;2022-09-21T01:00:08;99548.59;;;5.12;89.54
57779;BME280;43608;49.486;9.640;2022-09-21T01:00:39;99540.66;;;5.10;89.35
57779;BME280;43608;49.486;9.640;2022-09-21T01:01:11;99552.84;;;5.08;89.34
57779;BME280;43608;49.486;9.640;2022-09-21T01:01:41;99544.97;;;5.08;89.29
57779;BME280;43608;49.486;9.640;2022-09-21T01:02:12;99551.03;;;5.06;89.52
57779;BME280;43608;49.486;9.640;2022-09-21T01:02:44;99545.72;;;5.04;89.31
57779;BME280;43608;49.486;9.640;2022-09-21T01:03:15;99548.34;;;5.04;89.52
57779;BME280;43608;49.486;9.640;2022-09-21T01:03:46;99546.56;;;5.03;89.22
57779;BME280;43608;49.486;9.640;2022-09-21T01:04:17;99535.84;;;4.95;89.54
57779;BME280;43608;49.486;9.640;2022-09-21T01:04:51;99542.97;;;5.00;89.27
57779;BME280;43608;49.486;9.640;2022-09-21T01:05:23;99547.31;;;4.99;89.31
57779;BME280;43608;49.486;9.640;2022-09-21T01:05:55;99548.06;;;4.95;89.30
57779;BME280;43608;49.486;9.640;2022-09-21T01:06:26;99544.56;;;4.94;89.28
57779;BME280;43608;49.486;9.640;2022-09-21T01:06:59;99553.31;;;4.95;89.48
57779;BME280;43608;49.486;9.640;2022-09-21T01:07:44;99554.16;;;4.94;89.49
57779;BME280;43608;49.486;9.640;2022-09-21T01:08:16;99545.34;;;4.92;89.67
57779;BME280;43608;49.486;9.640;2022-09-21T01:08:54;99541.72;;;4.88;89.56
57779;BME280;43608;49.486;9.640;2022-09-21T01:09:28;99548.78;;;4.89;89.64
57779;BME280;43608;49.486;9.640;2022-09-21T01:10:03;99546.09;;;4.88;89.83
57779;BME280;43608;49.486;9.640;2022-09-21T01:11:41;99542.44;;;4.83;89.97
57779;BME280;43608;49.486;9.640;2022-09-21T01:15:28;99550.84;;;4.72;89.59
57779;BME280;43608;49.486;9.640;2022-09-21T01:16:15;99550.78;;;4.71;89.78
57779;BME280;43608;49.486;9.640;2022-09-21T01:17:04;99554.25;;;4.70;90.04
57779;BME280;43608;49.486;9.640;2022-09-21T01:18:34;99552.44;;;4.67;89.81
57779;BME280;43608;49.486;9.640;2022-09-21T01:20:11;99551.44;;;4.63;89.72
57779;BME280;43608;49.486;9.640;2022-09-21T01:21:21;99547.75;;;4.58;89.88
57779;BME280;43608;49.486;9.640;2022-09-21T01:24:51;99553.88;;;4.59;89.78
57779;BME280;43608;49.486;9.640;2022-09-21T01:30:03;99563.34;;;4.54;89.71
57779;BME280;43608;49.486;9.640;2022-09-21T01:30:36;99558.09;;;4.54;90.02
57779;BME280;43608;49.486;9.640;2022-09-21T01:31:14;99551.91;;;4.52;89.65
57779;BME280;43608;49.486;9.640;2022-09-21T01:32:33;99561.44;;;4.50;89.81
57779;BME280;43608;49.486;9.640;2022-09-21T01:33:56;99563.19;;;4.49;89.98
57779;BME280;43608;49.486;9.640;2022-09-21T01:34:46;99532.75;;;4.28;89.99
57779;BME280;43608;49.486;9.640;2022-09-21T01:35:21;99562.09;;;4.42;90.15
57779;BME280;43608;49.486;9.640;2022-09-21T01:35:59;99568.28;;;4.44;90.17
57779;BME280;43608;49.486;9.640;2022-09-21T01:36:32;99551.38;;;4.36;90.10
57779;BME280;43608;49.486;9.640;2022-09-21T01:37:08;99549.59;;;4.35;90.01
57779;BME280;43608;49.486;9.640;2022-09-21T01:37:44;99562.03;;;4.41;90.04
57779;BME280;43608;49.486;9.640;2022-09-21T01:38:23;99565.50;;;4.40;89.98
57779;BME280;43608;49.486;9.640;2022-09-21T01:39:01;99565.34;;;4.35;90.13
57779;BME280;43608;49.486;9.640;2022-09-21T01:39:33;99570.59;;;4.35;90.32
57779;BME280;43608;49.486;9.640;2022-09-21T01:40:09;99455.56;;;3.72;90.32
57779;BME280;43608;49.486;9.640;2022-09-21T01:40:49;99563.44;;;4.31;90.23
57779;BME280;43608;49.486;9.640;2022-09-21T01:41:23;99561.56;;;4.27;90.17
57779;BME280;43608;49.486;9.640;2022-09-21T01:41:56;99565.25;;;4.32;90.45
57779;BME280;43608;49.486;9.640;2022-09-21T01:42:29;99564.31;;;4.32;90.16
57779;BME280;43608;49.486;9.640;2022-09-21T01:43:03;99566.06;;;4.31;90.40
57779;BME280;43608;49.486;9.640;2022-09-21T01:43:37;99545.56;;;4.19;90.29
57779;BME280;43608;49.486;9.640;2022-09-21T01:44:12;99568.66;;;4.29;90.63
57779;BME280;43608;49.486;9.640;2022-09-21T01:44:45;99508.00;;;3.96;90.47
57779;BME280;43608;49.486;9.640;2022-09-21T01:45:22;99564.22;;;4.28;90.54
57779;BME280;43608;49.486;9.640;2022-09-21T01:45:56;99560.66;;;4.26;90.33
57779;BME280;43608;49.486;9.640;2022-09-21T01:46:31;99562.34;;;4.24;90.51
57779;BME280;43608;49.486;9.640;2022-09-21T01:47:06;99565.84;;;4.25;90.48
57779;BME280;43608;49.486;9.640;2022-09-21T01:47:39;99572.00;;;4.25;90.51
57779;BME280;43608;49.486;9.640;2022-09-21T01:48:12;99547.22;;;4.17;90.51
57779;BME280;43608;49.486;9.640;2022-09-21T01:48:46;99554.31;;;4.20;90.16
57779;BME280;43608;49.486;9.640;2022-09-21T01:49:22;99563.19;;;4.23;90.42
57779;BME280;43608;49.486;9.640;2022-09-21T01:49:55;99567.47;;;4.21;90.48
57779;BME280;43608;49.486;9.640;2022-09-21T01:50:34;99562.22;;;4.21;90.77
57779;BME280;43608;49.486;9.640;2022-09-21T01:51:09;99561.25;;;4.18;90.62
57779;BME280;43608;49.486;9.640;2022-09-21T01:51:45;99566.53;;;4.19;90.70
57779;BME280;43608;49.486;9.640;2022-09-21T01:52:46;99562.16;;;4.20;90.71
57779;BME280;43608;49.486;9.640;2022-09-21T01:53:33;99571.75;;;4.18;90.99
57779;BME280;43608;49.486;9.640;2022-09-21T01:54:10;99565.56;;;4.17;90.94
57779;BME280;43608;49.486;9.640;2022-09-21T01:54:48;99530.72;;;3.95;90.85
57779;BME280;43608;49.486;9.640;2022-09-21T01:55:54;99571.66;;;4.16;91.09
57779;BME280;43608;49.486;9.640;2022-09-21T01:56:40;99568.97;;;4.14;91.21
57779;BME280;43608;49.486;9.640;2022-09-21T01:57:58;99517.25;;;3.86;91.04
57779;BME280;43608;49.486;9.640;2022-09-21T01:58:34;99533.13;;;3.89;91.17
57779;BME280;43608;49.486;9.640;2022-09-21T01:59:15;99548.31;;;3.98;90.87
57779;BME280;43608;49.486;9.640;2022-09-21T01:59:57;99545.75;;;4.00;91.18
57779;BME280;43608;49.486;9.640;2022-09-21T02:00:30;99551.88;;;4.00;91.04
57779;BME280;43608;49.486;9.640;2022-09-21T02:01:04;99551.13;;;4.04;91.16
57779;BME280;43608;49.486;9.640;2022-09-21T02:01:42;99556.47;;;4.06;91.02
57779;BME280;43608;49.486;9.640;2022-09-21T02:02:24;99572.28;;;4.09;91.29
57779;BME280;43608;49.486;9.640;2022-09-21T02:03:40;99557.09;;;4.00;91.40
57779;BME280;43608;49.486;9.640;2022-09-21T02:04:13;99542.00;;;3.93;90.96
57779;BME280;43608;49.486;9.640;2022-09-21T02:04:44;99561.75;;;4.07;91.24
57779;BME280;43608;49.486;9.640;2022-09-21T02:05:15;99568.72;;;4.07;91.07
57779;BME280;43608;49.486;9.640;2022-09-21T02:05:46;99561.63;;;4.04;91.04
57779;BME280;43608;49.486;9.640;2022-09-21T02:06:17;99570.44;;;4.06;90.95
57779;BME280;43608;49.486;9.640;2022-09-21T02:06:49;99533.06;;;3.88;90.95
57779;BME280;43608;49.486;9.640;2022-09-21T02:07:20;99564.31;;;4.06;90.93
57779;BME280;43608;49.486;9.640;2022-09-21T02:07:51;99567.78;;;4.05;90.82
57779;BME280;43608;49.486;9.640;2022-09-21T02:08:23;99550.03;;;3.97;90.99
57779;BME280;43608;49.486;9.640;2022-09-21T02:08:56;99566.81;;;4.03;91.08
57779;BME280;43608;49.486;9.640;2022-09-21T02:09:27;99563.31;;;4.02;91.16
57779;BME280;43608;49.486;9.640;2022-09-21T02:09:59;99565.03;;;4.02;91.37
57779;BME280;43608;49.486;9.640;2022-09-21T02:10:36;99570.28;;;4.02;91.26
57779;BME280;43608;49.486;9.640;2022-09-21T02:11:09;99565.88;;;4.01;91.09
57779;BME280;43608;49.486;9.640;2022-09-21T02:11:41;99558.72;;;3.96;91.23
57779;BME280;43608;49.486;9.640;2022-09-21T02:12:14;99568.50;;;4.01;91.41
57779;BME280;43608;49.486;9.640;2022-09-21T02:12:44;99535.47;;;3.82;91.38
57779;BME280;43608;49.486;9.640;2022-09-21T02:13:17;99558.03;;;4.01;91.34
57779;BME280;43608;49.486;9.640;2022-09-21T02:13:51;99560.47;;;3.96;91.17
57779;BME280;43608;49.486;9.640;2022-09-21T02:14:23;99566.72;;;4.00;91.11
57779;BME280;43608;49.486;9.640;2022-09-21T02:14:54;99566.72;;;4.00;91.42
57779;BME280;43608;49.486;9.640;2022-09-21T02:15:31;99564.94;;;3.99;91.08
57779;BME280;43608;49.486;9.640;2022-09-21T02:18:01;99537.31;;;3.84;91.38
57779;BME280;43608;49.486;9.640;2022-09-21T02:18:42;99550.56;;;3.89;91.22
57779;BME280;43608;49.486;9.640;2022-09-21T02:19:37;99562.13;;;3.94;90.83
57779;BME280;43608;49.486;9.640;2022-09-21T02:20:19;99565.81;;;3.99;91.01
57779;BME280;43608;49.486;9.640;2022-09-21T02:20:55;99571.06;;;3.99;91.07
57779;BME280;43608;49.486;9.640;2022-09-21T02:22:23;99566.72;;;4.00;91.09
57779;BME280;43608;49.486;9.640;2022-09-21T02:23:43;99570.22;;;4.00;90.75
57779;BME280;43608;49.486;9.640;2022-09-21T02:24:38;99560.56;;;3.99;90.84
57779;BME280;43608;49.486;9.640;2022-09-21T02:25:21;99566.72;;;4.00;91.22
57779;BME280;43608;49.486;9.640;2022-09-21T02:26:02;99540.03;;;3.87;90.97
57779;BME280;43608;49.486;9.640;2022-09-21T02:26:44;99536.31;;;3.80;90.71
57779;BME280;43608;49.486;9.640;2022-09-21T02:28:50;99566.78;;;4.01;90.81
57779;BME280;43608;49.486;9.640;2022-09-21T02:29:29;99545.28;;;3.87;90.83
57779;BME280;43608;49.486;9.640;2022-09-21T02:30:37;99524.59;;;3.71;90.52
57779;BME280;43608;49.486;9.640;2022-09-21T02:31:25;99549.88;;;3.93;90.66
57779;BME280;43608;49.486;9.640;2022-09-21T02:32:01;99564.16;;;4.01;90.91
57779;BME280;43608;49.486;9.640;2022-09-21T02:34:37;99525.81;;;3.80;90.65
57779;BME280;43608;49.486;9.640;2022-09-21T02:34:51;99569.44;;;4.03;90.75
57779;BME280;43608;49.486;9.640;2022-09-21T02:37:20;99561.53;;;4.01;90.66
57779;BME280;43608;49.486;9.640;2022-09-21T02:38:17;99567.78;;;4.05;90.88
57779;BME280;43608;49.486;9.640;2022-09-21T02:39:02;99552.53;;;3.94;90.93
57779;BME280;43608;49.486;9.640;2022-09-21T02:39:39;99570.41;;;4.05;90.88
57779;BME280;43608;49.486;9.640;2022-09-21T02:40:16;99572.19;;;4.06;90.62
57779;BME280;43608;49.486;9.640;2022-09-21T02:41:33;99577.44;;;4.06;90.41
57779;BME280;43608;49.486;9.640;2022-09-21T02:42:18;99577.44;;;4.06;90.48
57779;BME280;43608;49.486;9.640;2022-09-21T02:42:54;99577.44;;;4.06;90.57
57779;BME280;43608;49.486;9.640;2022-09-21T02:44:29;99568.72;;;4.07;90.73
57779;BME280;43608;49.486;9.640;2022-09-21T02:45:51;99568.72;;;4.07;90.53
57779;BME280;43608;49.486;9.640;2022-09-21T02:47:01;99572.25;;;4.07;90.67
57779;BME280;43608;49.486;9.640;2022-09-21T02:47:40;99576.66;;;4.08;90.40
57779;BME280;43608;49.486;9.640;2022-09-21T02:48:17;99553.47;;;3.96;90.84
57779;BME280;43608;49.486;9.640;2022-09-21T02:48:53;99574.03;;;4.08;90.83
57779;BME280;43608;49.486;9.640;2022-09-21T02:49:29;99576.66;;;4.08;90.78
57779;BME280;43608;49.486;9.640;2022-09-21T02:50:09;99568.88;;;4.11;90.93
57779;BME280;43608;49.486;9.640;2022-09-21T02:50:51;99574.09;;;4.10;90.78
57779;BME280;43608;49.486;9.640;2022-09-21T02:51:34;99575.94;;;4.12;90.49
57779;BME280;43608;49.486;9.640;2022-09-21T02:52:10;99576.75;;;4.11;90.76
57779;BME280;43608;49.486;9.640;2022-09-21T02:52:42;99496.53;;;3.68;90.45
57779;BME280;43608;49.486;9.640;2022-09-21T02:53:18;99525.91;;;3.84;90.53
57779;BME280;43608;49.486;9.640;2022-09-21T02:53:51;99575.94;;;4.12;90.82
57779;BME280;43608;49.486;9.640;2022-09-21T02:54:26;99574.19;;;4.13;90.41
57779;BME280;43608;49.486;9.640;2022-09-21T02:54:59;99568.88;;;4.11;90.26
57779;BME280;43608;49.486;9.640;2022-09-21T02:55:32;99570.69;;;4.12;90.06
57779;BME280;43608;49.486;9.640;2022-09-21T02:56:03;99557.16;;;4.02;90.47
57779;BME280;43608;49.486;9.640;2022-09-21T02:56:37;99568.16;;;4.16;90.58
57779;BME280;43608;49.486;9.640;2022-09-21T02:57:09;99576.03;;;4.16;90.28
57779;BME280;43608;49.486;9.640;2022-09-21T02:57:43;99499.31;;;3.73;90.46
57779;BME280;43608;49.486;9.640;2022-09-21T02:58:15;99578.69;;;4.17;90.83
57779;BME280;43608;49.486;9.640;2022-09-21T02:58:50;99573.41;;;4.16;90.45
57779;BME280;43608;49.486;9.640;2022-09-21T02:59:23;99569.94;;;4.17;90.92
57779;BME280;43608;49.486;9.640;2022-09-21T02:59:53;99567.94;;;4.09;90.83
57779;BME280;43608;49.486;9.640;2022-09-21T03:00:24;99577.00;;;4.18;90.70
57779;BME280;43608;49.486;9.640;2022-09-21T03:00:55;99574.41;;;4.19;90.69
57779;BME280;43608;49.486;9.640;2022-09-21T03:01:27;99569.94;;;4.17;90.76
57779;BME280;43608;49.486;9.640;2022-09-21T03:01:58;99575.28;;;4.20;91.06
57779;BME280;43608;49.486;9.640;2022-09-21T03:02:36;99576.22;;;4.20;91.46
57779;BME280;43608;49.486;9.640;2022-09-21T03:03:17;99579.72;;;4.21;91.47
57779;BME280;43608;49.486;9.640;2022-09-21T03:03:48;99575.34;;;4.21;91.58
57779;BME280;43608;49.486;9.640;2022-09-21T03:04:18;99576.25;;;4.22;91.40
57779;BME280;43608;49.486;9.640;2022-09-21T03:04:49;99572.72;;;4.21;91.37
57779;BME280;43608;49.486;9.640;2022-09-21T03:05:19;99566.53;;;4.19;91.70
57779;BME280;43608;49.486;9.640;2022-09-21T03:05:52;99571.88;;;4.22;91.84
57779;BME280;43608;49.486;9.640;2022-09-21T03:06:23;99567.31;;;4.17;91.67
57779;BME280;43608;49.486;9.640;2022-09-21T03:06:53;99577.13;;;4.22;91.89
57779;BME280;43608;49.486;9.640;2022-09-21T03:07:23;99572.78;;;4.23;92.17
57779;BME280;43608;49.486;9.640;2022-09-21T03:07:54;99559.31;;;4.13;92.02
57779;BME280;43608;49.486;9.640;2022-09-21T03:08:24;99564.84;;;4.21;92.14
57779;BME280;43608;49.486;9.640;2022-09-21T03:08:54;99572.78;;;4.23;92.02
57779;BME280;43608;49.486;9.640;2022-09-21T03:09:27;99578.91;;;4.23;92.20
57779;BME280;43608;49.486;9.640;2022-09-21T03:09:57;99542.47;;;4.07;92.24
57779;BME280;43608;49.486;9.640;2022-09-21T03:10:28;99575.41;;;4.23;92.52
57779;BME280;43608;49.486;9.640;2022-09-21T03:10:58;99540.63;;;4.04;92.21
57779;BME280;43608;49.486;9.640;2022-09-21T03:11:29;99575.41;;;4.23;92.23
57779;BME280;43608;49.486;9.640;2022-09-21T03:12:00;99552.13;;;4.08;92.22
57779;BME280;43608;49.486;9.640;2022-09-21T03:12:31;99572.78;;;4.23;92.56
57779;BME280;43608;49.486;9.640;2022-09-21T03:13:01;99576.31;;;4.23;92.48
57779;BME280;43608;49.486;9.640;2022-09-21T03:13:32;99572.84;;;4.24;92.88
57779;BME280;43608;49.486;9.640;2022-09-21T03:14:03;99573.72;;;4.25;92.70
57779;BME280;43608;49.486;9.640;2022-09-21T03:14:37;99569.25;;;4.22;92.52
57779;BME280;43608;49.486;9.640;2022-09-21T03:15:08;99575.50;;;4.26;92.67
57779;BME280;43608;49.486;9.640;2022-09-21T03:15:40;99579.03;;;4.26;92.88
57779;BME280;43608;49.486;9.640;2022-09-21T03:16:11;99572.88;;;4.26;92.74
57779;BME280;43608;49.486;9.640;2022-09-21T03:16:42;99584.28;;;4.26;92.86
57779;BME280;43608;49.486;9.640;2022-09-21T03:17:12;99551.31;;;4.09;92.89
57779;BME280;43608;49.486;9.640;2022-09-21T03:17:42;99584.34;;;4.28;92.92
57779;BME280;43608;49.486;9.640;2022-09-21T03:18:13;99561.25;;;4.18;92.67
57779;BME280;43608;49.486;9.640;2022-09-21T03:18:44;99573.84;;;4.28;93.07
57779;BME280;43608;49.486;9.640;2022-09-21T03:19:14;99585.22;;;4.28;93.21
57779;BME280;43608;49.486;9.640;2022-09-21T03:19:45;99548.69;;;4.09;93.03
57779;BME280;43608;49.486;9.640;2022-09-21T03:20:15;99577.41;;;4.30;93.05
57779;BME280;43608;49.486;9.640;2022-09-21T03:20:45;99573.91;;;4.29;93.43
57779;BME280;43608;49.486;9.640;2022-09-21T03:21:16;99580.03;;;4.30;93.39
57779;BME280;43608;49.486;9.640;2022-09-21T03:21:46;99580.94;;;4.30;93.11
57779;BME280;43608;49.486;9.640;2022-09-21T03:22:17;99578.31;;;4.30;93.29
57779;BME280;43608;49.486;9.640;2022-09-21T03:22:47;99577.44;;;4.32;93.64
57779;BME280;43608;49.486;9.640;2022-09-21T03:23:17;99576.63;;;4.33;93.36
57779;BME280;43608;49.486;9.640;2022-09-21T03:23:48;99577.41;;;4.30;93.52
57779;BME280;43608;49.486;9.640;2022-09-21T03:24:18;99554.06;;;4.13;93.78
57779;BME280;43608;49.486;9.640;2022-09-21T03:25:08;99577.44;;;4.32;93.73
57779;BME280;43608;49.486;9.640;2022-09-21T03:25:44;99554.16;;;4.15;93.76
57779;BME280;43608;49.486;9.640;2022-09-21T03:26:15;99581.00;;;4.32;93.92
57779;BME280;43608;49.486;9.640;2022-09-21T03:26:45;99580.06;;;4.32;93.91
57779;BME280;43608;49.486;9.640;2022-09-21T03:27:19;99582.66;;;4.30;94.00
57779;BME280;43608;49.486;9.640;2022-09-21T03:27:49;99575.69;;;4.30;93.75
57779;BME280;43608;49.486;9.640;2022-09-21T03:28:22;99556.69;;;4.13;94.15
57779;BME280;43608;49.486;9.640;2022-09-21T03:28:53;99587.13;;;4.33;94.08
57779;BME280;43608;49.486;9.640;2022-09-21T03:29:23;99582.78;;;4.33;94.10
57779;BME280;43608;49.486;9.640;2022-09-21T03:29:54;99567.47;;;4.21;94.19
57779;BME280;43608;49.486;9.640;2022-09-21T03:30:25;99578.41;;;4.34;94.24
57779;BME280;43608;49.486;9.640;2022-09-21T03:30:55;99588.06;;;4.35;94.34
57779;BME280;43608;49.486;9.640;2022-09-21T03:31:26;99582.81;;;4.35;94.24
57779;BME280;43608;49.486;9.640;2022-09-21T03:31:56;99578.38;;;4.32;94.36
57779;BME280;43608;49.486;9.640;2022-09-21T03:32:26;99587.25;;;4.36;94.64
57779;BME280;43608;49.486;9.640;2022-09-21T03:32:57;99588.06;;;4.35;94.48
57779;BME280;43608;49.486;9.640;2022-09-21T03:33:28;99583.72;;;4.35;94.66
57779;BME280;43608;49.486;9.640;2022-09-21T03:33:58;99579.28;;;4.34;94.61
57779;BME280;43608;49.486;9.640;2022-09-21T03:34:28;99576.56;;;4.31;95.07
57779;BME280;43608;49.486;9.640;2022-09-21T03:35:01;99590.75;;;4.36;94.86
57779;BME280;43608;49.486;9.640;2022-09-21T03:35:33;99589.91;;;4.37;95.01
57779;BME280;43608;49.486;9.640;2022-09-21T03:36:04;99582.81;;;4.35;94.87
57779;BME280;43608;49.486;9.640;2022-09-21T03:36:34;99585.53;;;4.38;94.79
57779;BME280;43608;49.486;9.640;2022-09-21T03:37:06;99588.16;;;4.38;94.98
57779;BME280;43608;49.486;9.640;2022-09-21T03:37:37;99592.59;;;4.39;95.08
57779;BME280;43608;49.486;9.640;2022-09-21T03:38:08;99584.72;;;4.39;94.89
57779;BME280;43608;49.486;9.640;2022-09-21T03:38:38;99586.50;;;4.40;95.27
57779;BME280;43608;49.486;9.640;2022-09-21T03:39:08;99589.13;;;4.40;95.16
57779;BME280;43608;49.486;9.640;2022-09-21T03:39:39;99583.88;;;4.40;95.08
57779;BME280;43608;49.486;9.640;2022-09-21T03:40:09;99583.88;;;4.40;95.31
57779;BME280;43608;49.486;9.640;2022-09-21T03:40:48;99583.84;;;4.38;95.15
57779;BME280;43608;49.486;9.640;2022-09-21T03:41:18;99586.56;;;4.41;95.09
57779;BME280;43608;49.486;9.640;2022-09-21T03:41:49;99579.28;;;4.34;95.40
57779;BME280;43608;49.486;9.640;2022-09-21T03:42:20;99586.50;;;4.40;95.25
57779;BME280;43608;49.486;9.640;2022-09-21T03:42:50;99588.22;;;4.39;95.19
57779;BME280;43608;49.486;9.640;2022-09-21T03:43:20;99587.38;;;4.40;95.25
57779;BME280;43608;49.486;9.640;2022-09-21T03:43:51;99591.75;;;4.40;95.25
57779;BME280;43608;49.486;9.640;2022-09-21T03:44:22;99589.13;;;4.40;95.68